Time;durP1;ratioP1;P1;durP2;ratioP2;P2;SDS_P1;SDS_P2;PMS_P1;PMS_P2;Temp;Humidity;BMP_temperature;BMP_pressure;BME280_temperature;BME280_humidity;BME280_pressure;Samples;Min_cycle;Max_cycle;Signal;HPM_P1;HPM_P2
2020/12/26 18:43:17;;;;;;;28.48;12.95;;;;;;;;;;5079192;28;20070;-64
2020/12/26 18:45:42;;;;;;;27.90;13.93;;;;;;;;;;5075766;28;20044;-64
2020/12/26 18:48:09;;;;;;;34.47;17.55;;;;;;;;;;5075804;28;20021;-64
2020/12/26 18:50:35;;;;;;;30.35;15.32;;;;;;;;;;5075953;28;20029;-64
2020/12/26 18:53:01;;;;;;;38.53;18.92;;;;;;;;;;5076034;28;20466;-64
2020/12/26 18:55:26;;;;;;;48.72;23.48;;;;;;;;;;5076002;28;20041;-64
2020/12/26 18:57:52;;;;;;;56.08;25.02;;;;;;;;;;5075517;28;20486;-64
2020/12/26 19:00:18;;;;;;;57.20;27.05;;;;;;;;;;5075638;28;20040;-64
2020/12/26 19:02:43;;;;;;;50.33;24.80;;;;;;;;;;5057479;28;20425;-64
2020/12/26 19:05:10;;;;;;;75.72;38.45;;;;;;;;;;5075596;28;20033;-64
2020/12/26 19:07:36;;;;;;;83.13;44.28;;;;;;;;;;5057665;28;20050;-64
2020/12/26 19:10:03;;;;;;;91.40;48.63;;;;;;;;;;5057474;28;20037;-64
2020/12/26 19:12:28;;;;;;;83.50;43.10;;;;;;;;;;5075536;28;20036;-64
2020/12/26 19:14:54;;;;;;;74.97;36.63;;;;;;;;;;5057100;28;20127;-64
2020/12/26 19:17:23;;;;;;;70.15;36.30;;;;;;;;;;5075457;28;20041;-63
2020/12/26 19:19:53;;;;;;;157.57;68.07;;;;;;;;;;5075592;28;20071;-63
2020/12/26 19:22:19;;;;;;;252.30;104.95;;;;;;;;;;5075361;28;20020;-63
2020/12/26 19:24:45;;;;;;;162.18;76.50;;;;;;;;;;5075619;28;20128;-63
2020/12/26 19:27:10;;;;;;;130.13;61.15;;;;;;;;;;5075206;28;20024;-63
2020/12/26 19:29:37;;;;;;;118.60;53.05;;;;;;;;;;5057580;28;20478;-63
2020/12/26 19:32:03;;;;;;;78.80;37.17;;;;;;;;;;5049867;28;20070;-64
2020/12/26 19:34:30;;;;;;;65.93;33.08;;;;;;;;;;5074495;28;20457;-64
2020/12/26 19:36:56;;;;;;;72.20;35.75;;;;;;;;;;5074149;28;20029;-65
2020/12/26 19:39:22;;;;;;;83.28;41.05;;;;;;;;;;5074452;28;20032;-65
2020/12/26 19:41:48;;;;;;;73.28;36.88;;;;;;;;;;5073608;28;20033;-65
2020/12/26 19:44:15;;;;;;;90.60;42.58;;;;;;;;;;5074212;28;20040;-65
2020/12/26 19:46:40;;;;;;;88.18;42.15;;;;;;;;;;5074040;28;20049;-65
2020/12/26 19:49:06;;;;;;;118.00;56.55;;;;;;;;;;5056199;28;20039;-65
2020/12/26 19:51:31;;;;;;;61.90;32.47;;;;;;;;;;5073971;28;20017;-65
2020/12/26 19:53:57;;;;;;;59.88;30.60;;;;;;;;;;5073552;28;20045;-65
2020/12/26 19:56:23;;;;;;;50.75;26.58;;;;;;;;;;5073891;28;20029;-61
2020/12/26 19:58:50;;;;;;;141.30;76.65;;;;;;;;;;5073247;28;20033;-61
2020/12/26 20:01:15;;;;;;;213.57;109.43;;;;;;;;;;5073693;28;20429;-61
2020/12/26 20:03:41;;;;;;;232.13;100.45;;;;;;;;;;5073653;28;20040;-60
2020/12/26 20:06:06;;;;;;;248.93;91.03;;;;;;;;;;5073820;28;20471;-61
2020/12/26 20:08:32;;;;;;;240.43;88.53;;;;;;;;;;5055763;28;20036;-60
2020/12/26 20:11:00;;;;;;;233.27;83.30;;;;;;;;;;5073496;28;20024;-66
2020/12/26 20:13:31;;;;;;;148.82;62.03;;;;;;;;;;5055430;28;20045;-61
2020/12/26 20:16:03;;;;;;;106.60;57.08;;;;;;;;;;5073381;28;20040;-61
2020/12/26 20:18:28;;;;;;;71.63;41.08;;;;;;;;;;5073603;28;20036;-61
2020/12/26 20:20:54;;;;;;;91.72;48.33;;;;;;;;;;5073552;28;20033;-61
2020/12/26 20:23:20;;;;;;;96.32;51.85;;;;;;;;;;5073236;28;20478;-61
2020/12/26 20:25:46;;;;;;;80.15;41.67;;;;;;;;;;5073433;28;20382;-61
2020/12/26 20:28:12;;;;;;;112.68;48.72;;;;;;;;;;5055566;28;20033;-61
2020/12/26 20:30:37;;;;;;;91.65;39.67;;;;;;;;;;5073322;28;20439;-61
2020/12/26 20:33:03;;;;;;;106.95;42.65;;;;;;;;;;5073106;28;20530;-61
2020/12/26 20:35:28;;;;;;;73.03;36.25;;;;;;;;;;5073105;28;20073;-60
2020/12/26 20:37:54;;;;;;;70.43;34.80;;;;;;;;;;5073142;28;20041;-60
2020/12/26 20:40:19;;;;;;;92.25;47.53;;;;;;;;;;5055353;28;20171;-61
2020/12/26 20:42:45;;;;;;;89.05;44.38;;;;;;;;;;5072102;28;20538;-61
2020/12/26 20:45:11;;;;;;;89.47;42.92;;;;;;;;;;5072818;28;20135;-61
2020/12/26 20:47:37;;;;;;;90.28;45.50;;;;;;;;;;5073033;28;20033;-61
2020/12/26 20:50:03;;;;;;;136.52;83.47;;;;;;;;;;5072923;28;20032;-61
2020/12/26 20:52:28;;;;;;;104.72;48.85;;;;;;;;;;5072555;28;20043;-61
2020/12/26 20:54:54;;;;;;;164.00;71.65;;;;;;;;;;5072727;28;20028;-61
2020/12/26 20:57:22;;;;;;;151.88;59.60;;;;;;;;;;5072737;28;20040;-60
2020/12/26 20:59:48;;;;;;;134.25;52.85;;;;;;;;;;5072820;28;20085;-61
2020/12/26 21:02:14;;;;;;;279.08;96.47;;;;;;;;;;5072501;28;20040;-61
2020/12/26 21:04:45;;;;;;;203.20;77.70;;;;;;;;;;5072581;28;20515;-60
2020/12/26 21:07:11;;;;;;;307.92;119.50;;;;;;;;;;5072776;28;20098;-61
2020/12/26 21:09:37;;;;;;;303.98;128.50;;;;;;;;;;5072694;28;20029;-61
2020/12/26 21:12:04;;;;;;;200.30;78.47;;;;;;;;;;5071456;28;20037;-61
2020/12/26 21:14:30;;;;;;;121.47;56.45;;;;;;;;;;5070623;28;20393;-61
2020/12/26 21:16:55;;;;;;;107.88;59.33;;;;;;;;;;5060736;28;20090;-64
2020/12/26 21:19:21;;;;;;;102.72;56.25;;;;;;;;;;5061593;28;20044;-64
2020/12/26 21:21:48;;;;;;;150.45;86.00;;;;;;;;;;5059194;28;20124;-65
2020/12/26 21:24:14;;;;;;;279.83;172.65;;;;;;;;;;5072001;28;20123;-64
2020/12/26 21:26:39;;;;;;;101.82;57.33;;;;;;;;;;5053238;28;20029;-64
2020/12/26 21:29:05;;;;;;;178.70;106.32;;;;;;;;;;5053238;28;20021;-64
2020/12/26 21:31:31;;;;;;;109.90;66.68;;;;;;;;;;5053295;28;20391;-64
2020/12/26 21:33:57;;;;;;;70.43;36.05;;;;;;;;;;5053002;28;20033;-65
2020/12/26 21:36:30;;;;;;;67.47;33.90;;;;;;;;;;5052919;28;20044;-65
2020/12/26 21:38:56;;;;;;;90.32;44.42;;;;;;;;;;5053020;28;20048;-65
2020/12/26 21:41:22;;;;;;;90.15;46.13;;;;;;;;;;5053015;28;20072;-64
2020/12/26 21:43:48;;;;;;;133.73;70.65;;;;;;;;;;5052837;28;20068;-65
2020/12/26 21:46:14;;;;;;;132.07;63.15;;;;;;;;;;5052917;28;20033;-65
2020/12/26 21:48:40;;;;;;;116.25;53.53;;;;;;;;;;5052916;28;20111;-65
2020/12/26 21:51:10;;;;;;;140.93;64.28;;;;;;;;;;5052864;28;20507;-64
2020/12/26 21:53:35;;;;;;;136.00;61.13;;;;;;;;;;5035243;28;20052;-65
2020/12/26 21:56:01;;;;;;;124.47;58.33;;;;;;;;;;5052901;28;20048;-64
2020/12/26 21:58:27;;;;;;;124.38;56.70;;;;;;;;;;5052955;28;20025;-65
2020/12/26 22:00:53;;;;;;;119.45;50.20;;;;;;;;;;5052832;28;20576;-65
2020/12/26 22:03:20;;;;;;;110.95;45.70;;;;;;;;;;5046793;28;20035;-64
2020/12/26 22:05:49;;;;;;;95.07;41.13;;;;;;;;;;5056288;28;20024;-65
2020/12/26 22:08:15;;;;;;;94.18;47.70;;;;;;;;;;5072776;28;20399;-65
2020/12/26 22:10:49;;;;;;;129.95;69.65;;;;;;;;;;5065245;28;20041;-64
2020/12/26 22:13:15;;;;;;;99.93;53.65;;;;;;;;;;5052600;28;20435;-65
2020/12/26 22:15:49;;;;;;;109.85;52.72;;;;;;;;;;5052680;28;20068;-65
2020/12/26 22:18:15;;;;;;;111.43;58.15;;;;;;;;;;5052724;28;20045;-65
2020/12/26 22:20:41;;;;;;;96.57;50.72;;;;;;;;;;5052687;28;20033;-64
2020/12/26 22:23:07;;;;;;;87.32;46.00;;;;;;;;;;5054783;28;20052;-65
2020/12/26 22:25:33;;;;;;;78.63;45.00;;;;;;;;;;5056259;28;20487;-65
2020/12/26 22:27:59;;;;;;;81.15;41.85;;;;;;;;;;5066387;28;20032;-65
2020/12/26 22:30:25;;;;;;;68.85;38.70;;;;;;;;;;5076084;28;20032;-65
2020/12/26 22:32:50;;;;;;;70.85;41.67;;;;;;;;;;5056965;28;20033;-66
2020/12/26 22:35:18;;;;;;;69.30;37.38;;;;;;;;;;5039737;28;20029;-65
2020/12/26 22:37:43;;;;;;;80.13;41.67;;;;;;;;;;5076004;28;20041;-65
2020/12/26 22:40:09;;;;;;;95.20;46.75;;;;;;;;;;5076109;28;20039;-65
2020/12/26 22:42:34;;;;;;;86.60;41.45;;;;;;;;;;5075419;28;20036;-66
2020/12/26 22:45:00;;;;;;;77.35;40.63;;;;;;;;;;5076211;28;20052;-65
2020/12/26 22:47:25;;;;;;;63.33;33.08;;;;;;;;;;5062156;28;20032;-66
2020/12/26 22:49:53;;;;;;;62.38;33.13;;;;;;;;;;5055825;28;20041;-65
2020/12/26 22:52:19;;;;;;;67.57;31.10;;;;;;;;;;5055975;28;20022;-65
2020/12/26 22:54:44;;;;;;;59.80;31.40;;;;;;;;;;5056080;28;20103;-65
2020/12/26 22:57:10;;;;;;;53.72;30.20;;;;;;;;;;5055793;28;20035;-65
2020/12/26 22:59:36;;;;;;;46.00;26.77;;;;;;;;;;5055798;28;20087;-65
2020/12/26 23:02:08;;;;;;;45.80;24.95;;;;;;;;;;5055835;28;20079;-65
2020/12/26 23:04:34;;;;;;;43.38;23.98;;;;;;;;;;5055662;28;20483;-65
2020/12/26 23:06:59;;;;;;;118.30;48.70;;;;;;;;;;5054330;28;20131;-65
2020/12/26 23:09:25;;;;;;;77.15;36.45;;;;;;;;;;5055634;28;20115;-65
2020/12/26 23:11:50;;;;;;;57.28;28.35;;;;;;;;;;5055525;28;20395;-65
2020/12/26 23:14:16;;;;;;;57.78;31.70;;;;;;;;;;5055390;28;20032;-65
2020/12/26 23:16:41;;;;;;;56.83;29.40;;;;;;;;;;5055070;28;20035;-65
2020/12/26 23:19:07;;;;;;;43.85;22.10;;;;;;;;;;5055465;28;20053;-65
2020/12/26 23:21:34;;;;;;;45.55;23.33;;;;;;;;;;5055479;28;20020;-65
2020/12/26 23:23:59;;;;;;;45.63;23.58;;;;;;;;;;5055260;28;20044;-65
2020/12/26 23:26:25;;;;;;;53.97;25.70;;;;;;;;;;5056665;28;20021;-65
2020/12/26 23:28:52;;;;;;;59.67;28.42;;;;;;;;;;5055291;28;20493;-65
2020/12/26 23:31:17;;;;;;;73.13;32.13;;;;;;;;;;5063523;28;20390;-65
2020/12/26 23:33:43;;;;;;;64.82;29.35;;;;;;;;;;5055377;28;20041;-65
2020/12/26 23:36:12;;;;;;;73.50;30.65;;;;;;;;;;5069950;28;20456;-65
2020/12/26 23:38:39;;;;;;;86.20;35.08;;;;;;;;;;5075191;28;20090;-65
2020/12/26 23:41:04;;;;;;;120.13;47.17;;;;;;;;;;5075117;28;20090;-65
2020/12/26 23:43:30;;;;;;;123.50;48.35;;;;;;;;;;5074733;28;20487;-65
2020/12/26 23:45:56;;;;;;;99.43;41.67;;;;;;;;;;5074882;28;20083;-65
2020/12/26 23:48:21;;;;;;;103.50;43.67;;;;;;;;;;5074899;28;20079;-65
2020/12/26 23:50:47;;;;;;;109.45;46.80;;;;;;;;;;5056734;28;20078;-66
2020/12/26 23:53:13;;;;;;;81.97;35.25;;;;;;;;;;5075142;28;20467;-65
2020/12/26 23:55:38;;;;;;;73.25;33.25;;;;;;;;;;5071157;28;20048;-65
2020/12/26 23:58:04;;;;;;;64.38;30.40;;;;;;;;;;5054612;28;20116;-65
